London Airport
CYXU : now visible

Airfield :











YOU CAN JOIN US ON...

 
LOGIN :

Register | Disclaimer

   EN    FR    IT 

 









Legend :    VFR   Marginal VFR   IFR   Intensive IFR   Very Intensive IFR
Visi :
Ceiling :
>= 8 km
>= 3000ft
5 to 8 km
1000 to 3000 ft
1500m to 5 km
500 to 1000 ft
800 to 1500m
200 to 500 ft
< 800m
< 200 ft
Symbols :   Thunderstorms  Fog  Heavy snow  Heavy precipitations  Wind > 20 kt






- Airport Elevation : 912 ft
- IATA code : YXU


CYXU - London

CURRENT METAR :
  • 030922Z 00000KT 1SM R15/2600VP6000FT/U BR MIFG SCT022 BKN100 16/16 A2997 RMK SC3AC4 SLP149 DENSITY ALT 1200FT

EXPIRED METARs :
  • 030900Z 12002KT 1/2SM R15/2800FT/N FG SCT100 16/16 A2996 RMK FG1AC3 SLP145 DENSITY ALT 1300FT
  • 030838Z 07002KT 1/2SM R15/P6000FT/D FG BKN100 16/16 A2995 RMK FG2AC3 SLP143 DENSITY ALT 1300FT
  • 030821Z 09002KT 3/4SM R15/P6000FT/D BR MIFG FEW100 17/17 A2995 RMK AC1 SLP143 DENSITY ALT 1300FT
  • 030800Z 10003KT 6SM BR MIFG FEW009 BKN100 17/17 A2995 RMK SF1AC4 SLP142 DENSITY ALT 1400FT
  • 030700Z VRB02KT 15SM SCT009 OVC090 17/17 A2996 RMK SF3AC5 SLP143 DENSITY ALT 1400FT

TAF AMD TAF CYXU
Valid from the 03 at 08:00 until the 04 at 06:00 UTC


030843Z 0308/0406 VRB03KT 1/4SM FG VV001
TEMPO 0308/0312 1/2SM FG BKN100
BECMG 0312/0314 P6SM NSW SCT040
FM031400 18012KT P6SM -SHRA BKN040
PROB30 0317/0324 VRB15G25KT 1SM +TSRA BR BKN008 OVC020CB
FM040000 26006KT 6SM -SHRA BR SCT008 OVC015
FM040300 VRB03KT 6SM BR BKN008 OVC015
PROB30 0403/0406 2SM BR OVC004 RMK NXT FCST BY 031200Z
CZYZ FIR / North America



MET'MAP, your aeronautical weather chart ! - Copyright ORBIFLY December 2007 - Disclaimer

ORBIFLY MET'MAP TEAM :

Programming & Development : Alexandra Zaïnal
Concept & original design : Baudouin d'Aumeries
Assistance for programming : Marc-Olivier Méhu
Technical & hardware support : Manuel Goepfert

Contact : metmap@orbifly.com




SOURCES & CREDITS :

   NOAA       Earth
Advisory